sensor_id;sensor_type;location;lat;lon;timestamp;P1;durP1;ratioP1;P2;durP2;ratioP2
27576;SDS011;15011;53.380;10.034;2022-08-27T00:00:09;43.30;;;20.38;;
27576;SDS011;15011;53.380;10.034;2022-08-27T00:05:15;34.53;;;16.95;;
27576;SDS011;15011;53.380;10.034;2022-08-27T00:10:18;41.50;;;20.35;;
27576;SDS011;15011;53.380;10.034;2022-08-27T00:15:20;43.85;;;20.63;;
27576;SDS011;15011;53.380;10.034;2022-08-27T00:20:22;30.90;;;17.03;;
27576;SDS011;15011;53.380;10.034;2022-08-27T00:25:25;37.75;;;17.50;;
27576;SDS011;15011;53.380;10.034;2022-08-27T00:30:26;30.45;;;16.77;;
27576;SDS011;15011;53.380;10.034;2022-08-27T00:35:27;31.30;;;13.95;;
27576;SDS011;15011;53.380;10.034;2022-08-27T00:40:27;30.23;;;12.55;;
27576;SDS011;15011;53.380;10.034;2022-08-27T00:45:28;31.08;;;15.27;;
27576;SDS011;15011;53.380;10.034;2022-08-27T00:55:39;31.15;;;12.50;;
27576;SDS011;15011;53.380;10.034;2022-08-27T01:00:44;24.55;;;12.25;;
27576;SDS011;15011;53.380;10.034;2022-08-27T01:05:46;28.88;;;11.18;;
27576;SDS011;15011;53.380;10.034;2022-08-27T01:15:48;25.95;;;10.63;;
27576;SDS011;15011;53.380;10.034;2022-08-27T01:26:12;31.10;;;15.80;;
27576;SDS011;15011;53.380;10.034;2022-08-27T01:31:14;27.90;;;13.85;;
27576;SDS011;15011;53.380;10.034;2022-08-27T01:36:14;24.05;;;12.70;;
27576;SDS011;15011;53.380;10.034;2022-08-27T01:41:16;27.88;;;12.98;;
27576;SDS011;15011;53.380;10.034;2022-08-27T01:51:21;28.25;;;14.02;;
27576;SDS011;15011;53.380;10.034;2022-08-27T01:56:22;34.08;;;16.08;;
27576;SDS011;15011;53.380;10.034;2022-08-27T02:01:22;28.63;;;13.55;;
27576;SDS011;15011;53.380;10.034;2022-08-27T02:06:23;32.53;;;15.95;;
27576;SDS011;15011;53.380;10.034;2022-08-27T02:11:23;30.88;;;16.20;;
27576;SDS011;15011;53.380;10.034;2022-08-27T02:16:24;31.88;;;14.77;;
27576;SDS011;15011;53.380;10.034;2022-08-27T02:21:24;29.52;;;13.88;;
27576;SDS011;15011;53.380;10.034;2022-08-27T02:26:25;34.58;;;14.70;;
27576;SDS011;15011;53.380;10.034;2022-08-27T02:31:26;32.20;;;12.73;;
27576;SDS011;15011;53.380;10.034;2022-08-27T02:36:27;23.85;;;10.52;;
27576;SDS011;15011;53.380;10.034;2022-08-27T02:41:29;26.03;;;12.97;;
27576;SDS011;15011;53.380;10.034;2022-08-27T02:46:30;29.00;;;13.20;;
27576;SDS011;15011;53.380;10.034;2022-08-27T02:51:30;29.87;;;12.20;;
27576;SDS011;15011;53.380;10.034;2022-08-27T02:56:31;39.33;;;14.43;;
27576;SDS011;15011;53.380;10.034;2022-08-27T03:01:32;34.85;;;14.57;;
27576;SDS011;15011;53.380;10.034;2022-08-27T03:06:32;30.65;;;15.13;;
27576;SDS011;15011;53.380;10.034;2022-08-27T03:11:33;42.83;;;16.13;;
27576;SDS011;15011;53.380;10.034;2022-08-27T03:16:34;36.45;;;17.02;;
27576;SDS011;15011;53.380;10.034;2022-08-27T03:21:35;31.90;;;16.08;;
27576;SDS011;15011;53.380;10.034;2022-08-27T03:26:36;42.97;;;18.65;;
27576;SDS011;15011;53.380;10.034;2022-08-27T03:31:36;36.33;;;17.13;;
27576;SDS011;15011;53.380;10.034;2022-08-27T03:36:37;34.35;;;16.70;;
27576;SDS011;15011;53.380;10.034;2022-08-27T03:41:37;35.07;;;16.83;;
27576;SDS011;15011;53.380;10.034;2022-08-27T03:46:37;43.97;;;18.40;;
27576;SDS011;15011;53.380;10.034;2022-08-27T03:51:38;37.65;;;16.77;;
27576;SDS011;15011;53.380;10.034;2022-08-27T03:56:38;32.45;;;15.50;;
27576;SDS011;15011;53.380;10.034;2022-08-27T04:01:40;34.67;;;14.93;;
27576;SDS011;15011;53.380;10.034;2022-08-27T04:06:41;28.83;;;13.80;;
27576;SDS011;15011;53.380;10.034;2022-08-27T04:11:42;24.92;;;11.88;;
27576;SDS011;15011;53.380;10.034;2022-08-27T04:16:42;30.70;;;12.18;;
27576;SDS011;15011;53.380;10.034;2022-08-27T04:21:43;35.17;;;13.25;;
27576;SDS011;15011;53.380;10.034;2022-08-27T04:26:43;27.23;;;11.77;;
27576;SDS011;15011;53.380;10.034;2022-08-27T04:31:46;25.58;;;12.60;;
27576;SDS011;15011;53.380;10.034;2022-08-27T04:36:47;25.17;;;11.25;;
27576;SDS011;15011;53.380;10.034;2022-08-27T04:41:48;24.15;;;12.00;;
27576;SDS011;15011;53.380;10.034;2022-08-27T04:46:53;27.08;;;11.95;;
27576;SDS011;15011;53.380;10.034;2022-08-27T04:51:57;26.13;;;12.43;;
27576;SDS011;15011;53.380;10.034;2022-08-27T04:56:57;25.13;;;11.75;;
27576;SDS011;15011;53.380;10.034;2022-08-27T05:01:58;25.40;;;10.77;;
27576;SDS011;15011;53.380;10.034;2022-08-27T05:12:01;25.58;;;12.40;;
27576;SDS011;15011;53.380;10.034;2022-08-27T05:17:02;25.92;;;10.27;;
27576;SDS011;15011;53.380;10.034;2022-08-27T05:22:02;22.83;;;10.13;;
27576;SDS011;15011;53.380;10.034;2022-08-27T05:27:03;22.13;;;11.55;;
27576;SDS011;15011;53.380;10.034;2022-08-27T05:32:03;18.92;;;10.02;;
27576;SDS011;15011;53.380;10.034;2022-08-27T05:37:04;19.42;;;8.57;;
27576;SDS011;15011;53.380;10.034;2022-08-27T05:42:04;18.10;;;8.20;;
27576;SDS011;15011;53.380;10.034;2022-08-27T05:47:05;20.05;;;8.35;;
27576;SDS011;15011;53.380;10.034;2022-08-27T05:52:09;19.27;;;9.47;;
27576;SDS011;15011;53.380;10.034;2022-08-27T05:57:10;15.60;;;10.05;;
27576;SDS011;15011;53.380;10.034;2022-08-27T06:02:11;21.63;;;12.70;;
27576;SDS011;15011;53.380;10.034;2022-08-27T06:07:11;20.67;;;13.50;;
27576;SDS011;15011;53.380;10.034;2022-08-27T06:12:12;21.50;;;10.83;;
27576;SDS011;15011;53.380;10.034;2022-08-27T06:17:13;15.60;;;9.00;;
27576;SDS011;15011;53.380;10.034;2022-08-27T06:22:13;15.30;;;7.60;;
27576;SDS011;15011;53.380;10.034;2022-08-27T06:27:14;12.30;;;6.18;;
27576;SDS011;15011;53.380;10.034;2022-08-27T06:32:16;26.10;;;13.05;;
27576;SDS011;15011;53.380;10.034;2022-08-27T06:37:16;19.25;;;10.82;;
27576;SDS011;15011;53.380;10.034;2022-08-27T06:42:17;31.63;;;17.43;;
27576;SDS011;15011;53.380;10.034;2022-08-27T06:47:17;28.90;;;12.70;;
27576;SDS011;15011;53.380;10.034;2022-08-27T06:52:18;22.60;;;12.27;;
27576;SDS011;15011;53.380;10.034;2022-08-27T06:57:18;27.60;;;13.65;;
27576;SDS011;15011;53.380;10.034;2022-08-27T07:02:18;24.05;;;12.80;;
27576;SDS011;15011;53.380;10.034;2022-08-27T07:07:19;23.33;;;11.88;;
27576;SDS011;15011;53.380;10.034;2022-08-27T07:12:19;18.70;;;8.27;;
27576;SDS011;15011;53.380;10.034;2022-08-27T07:17:20;22.10;;;7.82;;
27576;SDS011;15011;53.380;10.034;2022-08-27T07:22:21;13.32;;;6.43;;
27576;SDS011;15011;53.380;10.034;2022-08-27T07:27:21;18.08;;;9.50;;
27576;SDS011;15011;53.380;10.034;2022-08-27T07:32:22;19.40;;;9.05;;
27576;SDS011;15011;53.380;10.034;2022-08-27T07:37:23;21.65;;;10.63;;
27576;SDS011;15011;53.380;10.034;2022-08-27T07:42:23;24.85;;;11.35;;
27576;SDS011;15011;53.380;10.034;2022-08-27T07:47:42;21.17;;;10.07;;
27576;SDS011;15011;53.380;10.034;2022-08-27T07:52:43;20.65;;;9.40;;
27576;SDS011;15011;53.380;10.034;2022-08-27T07:57:43;21.27;;;8.02;;
27576;SDS011;15011;53.380;10.034;2022-08-27T08:02:44;20.90;;;8.20;;
27576;SDS011;15011;53.380;10.034;2022-08-27T08:07:46;28.83;;;8.50;;
27576;SDS011;15011;53.380;10.034;2022-08-27T08:12:46;27.52;;;8.95;;
27576;SDS011;15011;53.380;10.034;2022-08-27T08:17:47;20.85;;;8.80;;
27576;SDS011;15011;53.380;10.034;2022-08-27T08:22:48;27.92;;;12.25;;
27576;SDS011;15011;53.380;10.034;2022-08-27T08:27:48;23.43;;;10.97;;
27576;SDS011;15011;53.380;10.034;2022-08-27T08:32:49;21.33;;;10.20;;
27576;SDS011;15011;53.380;10.034;2022-08-27T08:37:50;23.65;;;10.52;;
27576;SDS011;15011;53.380;10.034;2022-08-27T08:42:51;25.15;;;10.82;;
27576;SDS011;15011;53.380;10.034;2022-08-27T08:47:54;17.87;;;8.77;;
27576;SDS011;15011;53.380;10.034;2022-08-27T08:53:03;21.10;;;8.77;;
27576;SDS011;15011;53.380;10.034;2022-08-27T08:58:25;18.95;;;7.75;;
27576;SDS011;15011;53.380;10.034;2022-08-27T09:03:28;21.10;;;9.27;;
27576;SDS011;15011;53.380;10.034;2022-08-27T09:08:32;25.75;;;11.05;;
27576;SDS011;15011;53.380;10.034;2022-08-27T09:14:00;27.15;;;10.23;;
27576;SDS011;15011;53.380;10.034;2022-08-27T09:19:03;22.58;;;10.13;;
27576;SDS011;15011;53.380;10.034;2022-08-27T09:29:31;21.45;;;8.70;;
27576;SDS011;15011;53.380;10.034;2022-08-27T09:34:36;21.80;;;9.43;;
27576;SDS011;15011;53.380;10.034;2022-08-27T09:39:51;18.05;;;9.48;;
27576;SDS011;15011;53.380;10.034;2022-08-27T09:44:55;22.92;;;11.02;;
27576;SDS011;15011;53.380;10.034;2022-08-27T09:50:03;26.05;;;14.57;;
27576;SDS011;15011;53.380;10.034;2022-08-27T09:55:06;25.98;;;13.73;;
27576;SDS011;15011;53.380;10.034;2022-08-27T10:00:11;30.67;;;14.82;;
27576;SDS011;15011;53.380;10.034;2022-08-27T10:05:17;31.13;;;13.88;;
27576;SDS011;15011;53.380;10.034;2022-08-27T10:10:25;24.98;;;13.63;;
27576;SDS011;15011;53.380;10.034;2022-08-27T10:37:46;27.05;;;10.93;;
27576;SDS011;15011;53.380;10.034;2022-08-27T10:42:54;23.88;;;10.00;;
27576;SDS011;15011;53.380;10.034;2022-08-27T10:58:36;25.02;;;10.25;;
27576;SDS011;15011;53.380;10.034;2022-08-27T11:03:43;24.15;;;14.00;;
27576;SDS011;15011;53.380;10.034;2022-08-27T11:20:52;17.92;;;8.27;;
27576;SDS011;15011;53.380;10.034;2022-08-27T11:25:47;23.10;;;9.65;;
27576;SDS011;15011;53.380;10.034;2022-08-27T11:41:48;23.60;;;9.10;;
27576;SDS011;15011;53.380;10.034;2022-08-27T11:52:19;21.45;;;6.55;;
27576;SDS011;15011;53.380;10.034;2022-08-27T11:57:31;17.97;;;5.37;;
27576;SDS011;15011;53.380;10.034;2022-08-27T12:02:32;17.73;;;5.50;;
27576;SDS011;15011;53.380;10.034;2022-08-27T12:07:34;15.90;;;4.70;;
27576;SDS011;15011;53.380;10.034;2022-08-27T12:12:46;13.88;;;4.22;;
27576;SDS011;15011;53.380;10.034;2022-08-27T12:28:39;11.73;;;3.75;;
27576;SDS011;15011;53.380;10.034;2022-08-27T12:33:40;13.50;;;3.28;;
27576;SDS011;15011;53.380;10.034;2022-08-27T12:38:44;12.50;;;2.25;;
27576;SDS011;15011;53.380;10.034;2022-08-27T12:43:47;13.48;;;4.28;;
27576;SDS011;15011;53.380;10.034;2022-08-27T12:48:54;12.43;;;2.45;;
27576;SDS011;15011;53.380;10.034;2022-08-27T13:04:42;17.83;;;3.25;;
27576;SDS011;15011;53.380;10.034;2022-08-27T13:09:42;16.73;;;2.95;;
27576;SDS011;15011;53.380;10.034;2022-08-27T13:14:43;209.10;;;19.20;;
27576;SDS011;15011;53.380;10.034;2022-08-27T13:24:51;104.53;;;7.25;;
27576;SDS011;15011;53.380;10.034;2022-08-27T13:29:53;8.45;;;2.58;;
27576;SDS011;15011;53.380;10.034;2022-08-27T13:34:54;17.63;;;3.13;;
27576;SDS011;15011;53.380;10.034;2022-08-27T13:39:57;10.60;;;2.78;;
27576;SDS011;15011;53.380;10.034;2022-08-27T13:45:00;11.33;;;3.13;;
27576;SDS011;15011;53.380;10.034;2022-08-27T13:50:04;11.35;;;2.35;;
27576;SDS011;15011;53.380;10.034;2022-08-27T13:55:08;11.63;;;2.63;;
27576;SDS011;15011;53.380;10.034;2022-08-27T14:10:38;9.73;;;2.17;;
27576;SDS011;15011;53.380;10.034;2022-08-27T14:15:50;7.90;;;2.00;;
27576;SDS011;15011;53.380;10.034;2022-08-27T14:20:53;10.48;;;2.17;;
27576;SDS011;15011;53.380;10.034;2022-08-27T14:25:55;9.10;;;2.05;;
27576;SDS011;15011;53.380;10.034;2022-08-27T14:30:57;9.10;;;2.10;;
27576;SDS011;15011;53.380;10.034;2022-08-27T14:35:57;12.73;;;2.60;;
27576;SDS011;15011;53.380;10.034;2022-08-27T14:40:58;6.83;;;1.60;;
27576;SDS011;15011;53.380;10.034;2022-08-27T14:45:59;11.60;;;2.17;;
27576;SDS011;15011;53.380;10.034;2022-08-27T14:51:02;10.47;;;2.37;;
27576;SDS011;15011;53.380;10.034;2022-08-27T14:56:07;9.68;;;2.00;;
27576;SDS011;15011;53.380;10.034;2022-08-27T15:01:08;5.37;;;1.40;;
27576;SDS011;15011;53.380;10.034;2022-08-27T15:06:08;9.33;;;1.80;;
27576;SDS011;15011;53.380;10.034;2022-08-27T15:11:11;9.93;;;1.90;;
27576;SDS011;15011;53.380;10.034;2022-08-27T15:16:24;7.10;;;2.10;;
27576;SDS011;15011;53.380;10.034;2022-08-27T15:21:27;7.68;;;2.13;;
27576;SDS011;15011;53.380;10.034;2022-08-27T15:26:29;13.02;;;2.15;;
27576;SDS011;15011;53.380;10.034;2022-08-27T15:31:30;6.90;;;1.77;;
27576;SDS011;15011;53.380;10.034;2022-08-27T15:36:30;11.73;;;1.97;;
27576;SDS011;15011;53.380;10.034;2022-08-27T15:41:31;14.80;;;2.15;;
27576;SDS011;15011;53.380;10.034;2022-08-27T15:46:32;11.20;;;1.85;;
27576;SDS011;15011;53.380;10.034;2022-08-27T15:51:32;12.25;;;2.30;;
27576;SDS011;15011;53.380;10.034;2022-08-27T15:56:33;10.80;;;2.10;;
27576;SDS011;15011;53.380;10.034;2022-08-27T16:01:34;12.80;;;2.10;;
27576;SDS011;15011;53.380;10.034;2022-08-27T16:11:36;14.32;;;2.30;;
27576;SDS011;15011;53.380;10.034;2022-08-27T16:16:36;12.18;;;2.53;;
27576;SDS011;15011;53.380;10.034;2022-08-27T16:21:39;12.13;;;2.55;;
27576;SDS011;15011;53.380;10.034;2022-08-27T16:26:39;14.45;;;2.03;;
27576;SDS011;15011;53.380;10.034;2022-08-27T16:31:40;15.18;;;2.67;;
27576;SDS011;15011;53.380;10.034;2022-08-27T16:36:40;8.68;;;1.92;;
27576;SDS011;15011;53.380;10.034;2022-08-27T16:41:41;28.15;;;2.95;;
27576;SDS011;15011;53.380;10.034;2022-08-27T16:46:41;14.00;;;2.30;;
27576;SDS011;15011;53.380;10.034;2022-08-27T16:51:42;11.50;;;2.78;;
27576;SDS011;15011;53.380;10.034;2022-08-27T16:56:43;15.95;;;2.95;;
27576;SDS011;15011;53.380;10.034;2022-08-27T17:01:43;17.45;;;2.90;;
27576;SDS011;15011;53.380;10.034;2022-08-27T17:06:44;14.77;;;2.60;;
27576;SDS011;15011;53.380;10.034;2022-08-27T17:11:45;14.23;;;2.65;;
27576;SDS011;15011;53.380;10.034;2022-08-27T17:16:50;14.50;;;3.33;;
27576;SDS011;15011;53.380;10.034;2022-08-27T17:21:52;13.95;;;2.85;;
27576;SDS011;15011;53.380;10.034;2022-08-27T17:26:54;13.20;;;2.83;;
27576;SDS011;15011;53.380;10.034;2022-08-27T17:31:54;10.55;;;2.47;;
27576;SDS011;15011;53.380;10.034;2022-08-27T17:36:55;11.07;;;3.00;;
27576;SDS011;15011;53.380;10.034;2022-08-27T17:41:55;13.30;;;2.88;;
27576;SDS011;15011;53.380;10.034;2022-08-27T17:46:57;14.13;;;3.00;;
27576;SDS011;15011;53.380;10.034;2022-08-27T17:52:00;17.52;;;3.15;;
27576;SDS011;15011;53.380;10.034;2022-08-27T17:57:07;9.95;;;2.75;;
27576;SDS011;15011;53.380;10.034;2022-08-27T18:02:18;10.07;;;2.67;;
27576;SDS011;15011;53.380;10.034;2022-08-27T18:07:39;15.13;;;3.50;;
27576;SDS011;15011;53.380;10.034;2022-08-27T18:12:42;14.10;;;3.22;;
27576;SDS011;15011;53.380;10.034;2022-08-27T18:17:43;11.05;;;3.40;;
27576;SDS011;15011;53.380;10.034;2022-08-27T18:22:44;22.23;;;3.67;;
27576;SDS011;15011;53.380;10.034;2022-08-27T18:27:45;13.80;;;3.55;;
27576;SDS011;15011;53.380;10.034;2022-08-27T18:32:48;24.58;;;4.05;;
27576;SDS011;15011;53.380;10.034;2022-08-27T18:37:48;17.42;;;3.45;;
27576;SDS011;15011;53.380;10.034;2022-08-27T18:42:49;22.83;;;4.35;;
27576;SDS011;15011;53.380;10.034;2022-08-27T18:47:51;17.52;;;3.90;;
27576;SDS011;15011;53.380;10.034;2022-08-27T18:52:53;16.77;;;3.45;;
27576;SDS011;15011;53.380;10.034;2022-08-27T18:57:54;13.05;;;3.35;;
27576;SDS011;15011;53.380;10.034;2022-08-27T19:02:54;13.73;;;3.05;;
27576;SDS011;15011;53.380;10.034;2022-08-27T19:07:56;15.50;;;3.70;;
27576;SDS011;15011;53.380;10.034;2022-08-27T19:12:57;16.00;;;3.30;;
27576;SDS011;15011;53.380;10.034;2022-08-27T19:17:58;15.57;;;3.63;;
27576;SDS011;15011;53.380;10.034;2022-08-27T19:22:59;20.07;;;4.47;;
27576;SDS011;15011;53.380;10.034;2022-08-27T19:28:00;17.10;;;3.78;;
27576;SDS011;15011;53.380;10.034;2022-08-27T19:33:00;13.77;;;3.20;;
27576;SDS011;15011;53.380;10.034;2022-08-27T19:38:01;15.52;;;3.47;;
27576;SDS011;15011;53.380;10.034;2022-08-27T19:43:01;15.23;;;3.70;;
27576;SDS011;15011;53.380;10.034;2022-08-27T19:48:02;14.18;;;3.42;;
27576;SDS011;15011;53.380;10.034;2022-08-27T19:53:02;20.85;;;3.30;;
27576;SDS011;15011;53.380;10.034;2022-08-27T19:58:03;13.30;;;3.25;;
27576;SDS011;15011;53.380;10.034;2022-08-27T20:03:03;15.65;;;3.42;;
27576;SDS011;15011;53.380;10.034;2022-08-27T20:08:04;21.23;;;4.22;;
27576;SDS011;15011;53.380;10.034;2022-08-27T20:13:05;19.58;;;3.60;;
27576;SDS011;15011;53.380;10.034;2022-08-27T20:18:06;15.85;;;3.80;;
27576;SDS011;15011;53.380;10.034;2022-08-27T20:23:07;11.68;;;2.80;;
27576;SDS011;15011;53.380;10.034;2022-08-27T20:28:08;15.13;;;3.28;;
27576;SDS011;15011;53.380;10.034;2022-08-27T20:33:08;21.65;;;4.10;;
27576;SDS011;15011;53.380;10.034;2022-08-27T20:38:08;16.60;;;3.40;;
27576;SDS011;15011;53.380;10.034;2022-08-27T20:43:09;13.90;;;3.50;;
27576;SDS011;15011;53.380;10.034;2022-08-27T20:48:10;11.98;;;3.83;;
27576;SDS011;15011;53.380;10.034;2022-08-27T20:53:11;18.70;;;3.83;;
27576;SDS011;15011;53.380;10.034;2022-08-27T20:58:11;12.80;;;3.25;;
27576;SDS011;15011;53.380;10.034;2022-08-27T21:03:30;17.27;;;3.63;;
27576;SDS011;15011;53.380;10.034;2022-08-27T21:08:31;17.30;;;3.15;;
27576;SDS011;15011;53.380;10.034;2022-08-27T21:13:31;12.65;;;3.60;;
27576;SDS011;15011;53.380;10.034;2022-08-27T21:18:32;17.90;;;4.33;;
27576;SDS011;15011;53.380;10.034;2022-08-27T21:23:33;14.15;;;3.97;;
27576;SDS011;15011;53.380;10.034;2022-08-27T21:28:36;12.55;;;3.35;;
27576;SDS011;15011;53.380;10.034;2022-08-27T21:33:38;19.55;;;4.07;;
27576;SDS011;15011;53.380;10.034;2022-08-27T21:38:38;20.88;;;3.75;;
27576;SDS011;15011;53.380;10.034;2022-08-27T21:43:39;18.00;;;4.43;;
27576;SDS011;15011;53.380;10.034;2022-08-27T21:48:39;15.25;;;3.85;;
27576;SDS011;15011;53.380;10.034;2022-08-27T21:53:40;14.23;;;3.93;;
27576;SDS011;15011;53.380;10.034;2022-08-27T21:58:40;15.45;;;3.90;;
27576;SDS011;15011;53.380;10.034;2022-08-27T22:03:41;14.43;;;3.83;;
27576;SDS011;15011;53.380;10.034;2022-08-27T22:08:43;21.20;;;4.75;;
27576;SDS011;15011;53.380;10.034;2022-08-27T22:13:43;14.85;;;4.10;;
27576;SDS011;15011;53.380;10.034;2022-08-27T22:18:44;19.88;;;4.47;;
27576;SDS011;15011;53.380;10.034;2022-08-27T22:23:44;18.15;;;4.18;;
27576;SDS011;15011;53.380;10.034;2022-08-27T22:28:45;19.38;;;4.05;;
27576;SDS011;15011;53.380;10.034;2022-08-27T22:33:45;19.35;;;4.35;;
27576;SDS011;15011;53.380;10.034;2022-08-27T22:38:46;15.10;;;4.05;;
27576;SDS011;15011;53.380;10.034;2022-08-27T22:43:46;20.97;;;4.43;;
27576;SDS011;15011;53.380;10.034;2022-08-27T22:48:47;12.20;;;4.00;;
27576;SDS011;15011;53.380;10.034;2022-08-27T22:53:47;19.08;;;3.80;;
27576;SDS011;15011;53.380;10.034;2022-08-27T22:58:48;17.07;;;4.00;;
27576;SDS011;15011;53.380;10.034;2022-08-27T23:03:48;15.45;;;4.00;;
27576;SDS011;15011;53.380;10.034;2022-08-27T23:08:49;18.58;;;4.50;;
27576;SDS011;15011;53.380;10.034;2022-08-27T23:13:50;14.43;;;4.07;;
27576;SDS011;15011;53.380;10.034;2022-08-27T23:18:50;19.52;;;4.53;;
27576;SDS011;15011;53.380;10.034;2022-08-27T23:23:51;17.90;;;3.90;;
27576;SDS011;15011;53.380;10.034;2022-08-27T23:28:51;14.75;;;4.00;;
27576;SDS011;15011;53.380;10.034;2022-08-27T23:33:52;22.70;;;4.90;;
27576;SDS011;15011;53.380;10.034;2022-08-27T23:38:55;18.08;;;4.07;;
27576;SDS011;15011;53.380;10.034;2022-08-27T23:43:57;21.33;;;4.05;;
27576;SDS011;15011;53.380;10.034;2022-08-27T23:48:57;19.98;;;4.47;;
27576;SDS011;15011;53.380;10.034;2022-08-27T23:53:58;22.25;;;4.30;;
27576;SDS011;15011;53.380;10.034;2022-08-27T23:58:58;20.30;;;4.25;;
